Poule les Echarmeaux (69) - 1

Date : 12/04/2014

Place Nom Licence Catégorie Club Temps CN à J-60 Points Différence Nouveau CN
1 BEAUVIR Maëlle 12709 D18 3502BR 0:26:46 5422 6332 +910 5870
2 BEAUVISAGE Lauriane 11307 D20 7807IF 0:27:23 6630 6189 -441 6621
3 HANAUER Florence 20408 D16 6806AL 0:28:17 5643 5992 +349 5726
4 DROIN Solène 17925 D18 4201RA 0:29:29 5570 5748 +178 5923
5 POIROT Delphine 15979 D20 8809LO 0:29:30 6318 5745 -573 6451
6 GIRARD Lucille 19689 D20 3705CE 0:30:03 5833 5640 -193 5785
7 HABERKORN Chloé 10396 D20 2105BO 0:30:39 6203 5530 -673 6239
8 GUILLEMET Océane 22819 D18 3318AQ 0:31:37 5383 5361 -22 5603
9 LUTHRINGER Coline 10091 D18 8809LO 0:33:00 4800 5136 +336 4938
10 HUMMEL-AZAIS Margaux 18432 D20 2517FC 0:33:29 6017 5062 -955 5958
11 DUDOIGNON Chloé 18089 D16 2605RA 0:33:32 4676 5054 +378 4864
12 TRESSOL Marine 20532 D16 1307PR 0:33:46 4743 5019 +276 4857
13 BORNARD Julie 9402 D20 7305RA 0:34:29 5314 4915 -399 5290
14 VUITTON Marie 18842 D16 6911RA 0:34:40 4611 4889 +278 4781
15 FOL Loreline 16393 D18 3105MP 0:35:47 4811 4736 -75 4964
16 BASSET Juliette 12398 D16 6911RA 0:35:59 4872 4710 -162 5085
17 LOTERIE Laurine 7045 D20 5907NO 0:36:06 5863 4695 -1168 5835
18 LE GLAND Louise 22186 D16 7404RA 0:36:13 3324 4680 +1356 3970
19 DUQUENNE Audrey 23885 D18 5907NO 0:36:28 4882 4648 -234 5075
20 GIRARD Clarisse 22476 D16 2508FC 0:36:33 3822 4637 +815 4434
21 DEVRIEUX Naïs 7672 D20 4203RA 0:36:43 5754 4616 -1138 5811
22 VALETTE Marion 10430 D18 6913RA 0:36:51 5200 4599 -601 5181
23 MOUSSU Sarah 22301 D18 3318AQ 0:37:25 4637 4530 -107 4648
24 BASSET Fiona 23384 D18 6911RA 0:38:04 5052 4452 -600 5085
25 DELENNE Camilla 13800 D18 1307PR 0:38:27 5240 4408 -832 5320
26 CREUSAT Eva 23806 D18 8809LO 0:39:34 4594 4283 -311 4776
27 RIVOLLIER Isaline 22451 D20 4201RA 0:40:31 4627 4183 -444 4643
28 CORBIN Emma 20916 D16 2604RA 0:42:07 4222 4024 -198 4254
29 LENOBLE Lou 23559 D16 6208NO 0:42:14 5240 4013 -1227 5446
30 DELENNE Joanna 17030 D16 1307PR 0:45:32 3406 3722 +316 3700
31 FALGA Beatrice 12403 D18 6911RA 0:53:50 3541 3148 -393 3636
32 BEYLS Mathilde 19269 D16 7807IF 0:55:15 3125 3068 -57 3461
FOLTZER Cécile 26907 D18 2517FC pm 4515 0 4913
BOLZER Marie 20359 D16 5407LO pm 4152 0 4340